sensor_id;sensor_type;location;lat;lon;timestamp;pressure;altitude;pressure_sealevel;temperature;humidity
42289;BME280;30230;47.520;19.016;2023-04-07T00:01:07;98807.34;;;2.84;84.70
42289;BME280;30230;47.520;19.016;2023-04-07T00:03:08;98806.13;;;2.79;85.58
42289;BME280;30230;47.520;19.016;2023-04-07T00:05:08;98814.16;;;2.87;85.19
42289;BME280;30230;47.520;19.016;2023-04-07T00:07:09;98814.00;;;2.88;83.31
42289;BME280;30230;47.520;19.016;2023-04-07T00:09:09;98809.84;;;2.86;83.99
42289;BME280;30230;47.520;19.016;2023-04-07T00:11:10;98801.66;;;2.87;84.83
42289;BME280;30230;47.520;19.016;2023-04-07T00:13:10;98811.81;;;2.84;83.94
42289;BME280;30230;47.520;19.016;2023-04-07T00:15:11;98807.84;;;2.80;84.35
42289;BME280;30230;47.520;19.016;2023-04-07T00:17:11;98812.97;;;2.73;85.39
42289;BME280;30230;47.520;19.016;2023-04-07T00:19:12;98807.63;;;2.73;85.08
42289;BME280;30230;47.520;19.016;2023-04-07T00:21:12;98809.31;;;2.82;83.30
42289;BME280;30230;47.520;19.016;2023-04-07T00:23:13;98806.31;;;2.77;84.00
42289;BME280;30230;47.520;19.016;2023-04-07T00:25:13;98797.16;;;2.72;85.67
42289;BME280;30230;47.520;19.016;2023-04-07T00:27:14;98801.84;;;2.86;85.46
42289;BME280;30230;47.520;19.016;2023-04-07T00:29:15;98793.31;;;2.82;84.32
42289;BME280;30230;47.520;19.016;2023-04-07T00:31:15;98800.50;;;2.90;84.09
42289;BME280;30230;47.520;19.016;2023-04-07T00:33:16;98799.69;;;2.90;83.69
42289;BME280;30230;47.520;19.016;2023-04-07T00:35:16;98793.16;;;2.84;82.09
42289;BME280;30230;47.520;19.016;2023-04-07T00:37:17;98795.34;;;2.80;83.25
42289;BME280;30230;47.520;19.016;2023-04-07T00:39:19;98786.50;;;2.80;82.46
42289;BME280;30230;47.520;19.016;2023-04-07T00:41:19;98798.16;;;2.87;83.49
42289;BME280;30230;47.520;19.016;2023-04-07T00:43:20;98791.34;;;3.01;82.04
42289;BME280;30230;47.520;19.016;2023-04-07T00:45:20;98790.00;;;2.97;81.06
42289;BME280;30230;47.520;19.016;2023-04-07T00:47:21;98790.66;;;3.07;79.99
42289;BME280;30230;47.520;19.016;2023-04-07T00:49:21;98791.00;;;2.96;79.73
42289;BME280;30230;47.520;19.016;2023-04-07T00:51:22;98793.47;;;2.89;81.18
42289;BME280;30230;47.520;19.016;2023-04-07T00:53:22;98790.81;;;2.89;81.07
42289;BME280;30230;47.520;19.016;2023-04-07T00:55:23;98797.97;;;2.88;81.18
42289;BME280;30230;47.520;19.016;2023-04-07T00:57:23;98791.97;;;2.78;81.85
42289;BME280;30230;47.520;19.016;2023-04-07T00:59:24;98784.16;;;2.93;80.19
42289;BME280;30230;47.520;19.016;2023-04-07T01:01:29;98785.31;;;2.82;81.84
42289;BME280;30230;47.520;19.016;2023-04-07T01:03:44;98779.50;;;2.87;81.03
42289;BME280;30230;47.520;19.016;2023-04-07T01:05:52;98783.69;;;2.90;81.42
42289;BME280;30230;47.520;19.016;2023-04-07T01:10:01;98777.66;;;2.79;81.41
42289;BME280;30230;47.520;19.016;2023-04-07T01:12:18;98773.00;;;2.81;82.12
42289;BME280;30230;47.520;19.016;2023-04-07T01:14:23;98781.16;;;2.80;83.22
42289;BME280;30230;47.520;19.016;2023-04-07T01:16:30;98774.50;;;2.76;82.78
42289;BME280;30230;47.520;19.016;2023-04-07T01:18:32;98777.00;;;2.85;82.91
42289;BME280;30230;47.520;19.016;2023-04-07T01:20:34;98764.34;;;2.79;81.73
42289;BME280;30230;47.520;19.016;2023-04-07T01:22:42;98771.31;;;2.88;81.47
42289;BME280;30230;47.520;19.016;2023-04-07T01:27:37;98770.97;;;2.83;81.57
42289;BME280;30230;47.520;19.016;2023-04-07T01:29:44;98765.00;;;2.81;80.27
42289;BME280;30230;47.520;19.016;2023-04-07T01:31:47;98767.00;;;2.79;81.06
42289;BME280;30230;47.520;19.016;2023-04-07T01:33:49;98766.13;;;2.79;80.96
42289;BME280;30230;47.520;19.016;2023-04-07T01:35:50;98756.13;;;2.73;82.62
42289;BME280;30230;47.520;19.016;2023-04-07T01:37:53;98762.81;;;2.77;81.64
42289;BME280;30230;47.520;19.016;2023-04-07T01:39:54;98767.00;;;2.79;82.31
42289;BME280;30230;47.520;19.016;2023-04-07T01:41:56;98753.66;;;2.87;81.56
42289;BME280;30230;47.520;19.016;2023-04-07T01:43:57;98757.84;;;2.90;80.72
42289;BME280;30230;47.520;19.016;2023-04-07T01:46:00;98759.66;;;2.90;81.13
42289;BME280;30230;47.520;19.016;2023-04-07T01:48:04;98761.97;;;2.93;80.45
42289;BME280;30230;47.520;19.016;2023-04-07T01:50:06;98759.16;;;2.86;80.77
42289;BME280;30230;47.520;19.016;2023-04-07T01:52:08;98762.66;;;2.95;81.05
42289;BME280;30230;47.520;19.016;2023-04-07T01:54:09;98760.00;;;2.86;81.12
42289;BME280;30230;47.520;19.016;2023-04-07T01:56:10;98757.31;;;2.86;82.09
42289;BME280;30230;47.520;19.016;2023-04-07T01:58:11;98762.16;;;2.91;82.31
42289;BME280;30230;47.520;19.016;2023-04-07T02:00:12;98760.63;;;2.88;81.85
42289;BME280;30230;47.520;19.016;2023-04-07T02:02:12;98762.66;;;2.86;82.22
42289;BME280;30230;47.520;19.016;2023-04-07T02:04:33;98763.31;;;2.88;81.91
42289;BME280;30230;47.520;19.016;2023-04-07T02:07:05;98759.81;;;2.96;81.72
42289;BME280;30230;47.520;19.016;2023-04-07T02:09:10;98758.50;;;3.00;82.20
42289;BME280;30230;47.520;19.016;2023-04-07T02:11:12;98748.81;;;2.91;82.73
42289;BME280;30230;47.520;19.016;2023-04-07T02:13:17;98752.81;;;2.87;83.77
42289;BME280;30230;47.520;19.016;2023-04-07T02:15:18;98753.81;;;2.86;84.57
42289;BME280;30230;47.520;19.016;2023-04-07T02:17:19;98756.31;;;2.87;83.93
42289;BME280;30230;47.520;19.016;2023-04-07T02:19:20;98758.31;;;2.85;84.33
42289;BME280;30230;47.520;19.016;2023-04-07T02:21:21;98758.00;;;2.80;83.56
42289;BME280;30230;47.520;19.016;2023-04-07T02:23:23;98755.16;;;2.82;82.46
42289;BME280;30230;47.520;19.016;2023-04-07T02:25:25;98758.66;;;2.82;82.55
42289;BME280;30230;47.520;19.016;2023-04-07T02:27:25;98762.97;;;2.83;83.01
42289;BME280;30230;47.520;19.016;2023-04-07T02:29:26;98751.50;;;2.75;82.54
42289;BME280;30230;47.520;19.016;2023-04-07T02:31:26;98752.16;;;2.77;83.27
42289;BME280;30230;47.520;19.016;2023-04-07T02:33:27;98755.13;;;2.74;83.50
42289;BME280;30230;47.520;19.016;2023-04-07T02:35:27;98761.16;;;2.76;84.92
42289;BME280;30230;47.520;19.016;2023-04-07T02:37:28;98760.66;;;2.80;83.00
42289;BME280;30230;47.520;19.016;2023-04-07T02:39:28;98762.66;;;2.86;82.34
42289;BME280;30230;47.520;19.016;2023-04-07T02:41:28;98753.31;;;2.82;82.20
42289;BME280;30230;47.520;19.016;2023-04-07T02:43:29;98751.97;;;2.86;81.36
42289;BME280;30230;47.520;19.016;2023-04-07T02:45:30;98758.13;;;2.79;81.28
42289;BME280;30230;47.520;19.016;2023-04-07T02:47:30;98760.66;;;2.80;81.53
42289;BME280;30230;47.520;19.016;2023-04-07T02:49:31;98759.97;;;2.78;81.99
42289;BME280;30230;47.520;19.016;2023-04-07T02:51:31;98754.81;;;2.77;83.74
42289;BME280;30230;47.520;19.016;2023-04-07T02:53:32;98762.81;;;2.77;82.06
42289;BME280;30230;47.520;19.016;2023-04-07T02:55:32;98763.31;;;2.88;82.57
42289;BME280;30230;47.520;19.016;2023-04-07T02:57:32;98758.16;;;2.87;82.59
42289;BME280;30230;47.520;19.016;2023-04-07T02:59:33;98756.31;;;2.87;83.10
42289;BME280;30230;47.520;19.016;2023-04-07T03:01:33;98751.34;;;2.84;83.08
42289;BME280;30230;47.520;19.016;2023-04-07T03:03:35;98754.81;;;2.85;82.96
42289;BME280;30230;47.520;19.016;2023-04-07T03:05:35;98752.50;;;2.90;82.45
42289;BME280;30230;47.520;19.016;2023-04-07T03:07:36;98747.47;;;2.87;82.24
42289;BME280;30230;47.520;19.016;2023-04-07T03:09:36;98750.31;;;2.85;82.20
42289;BME280;30230;47.520;19.016;2023-04-07T03:11:36;98745.31;;;2.82;82.82
42289;BME280;30230;47.520;19.016;2023-04-07T03:13:37;98748.47;;;2.78;82.51
42289;BME280;30230;47.520;19.016;2023-04-07T03:15:37;98747.97;;;2.82;83.37
42289;BME280;30230;47.520;19.016;2023-04-07T03:17:38;98740.81;;;2.75;83.82
42289;BME280;30230;47.520;19.016;2023-04-07T03:19:38;98749.63;;;2.83;81.97
42289;BME280;30230;47.520;19.016;2023-04-07T03:21:39;98750.97;;;2.87;82.32
42289;BME280;30230;47.520;19.016;2023-04-07T03:23:39;98747.81;;;2.84;83.70
42289;BME280;30230;47.520;19.016;2023-04-07T03:25:40;98741.63;;;2.83;82.97
42289;BME280;30230;47.520;19.016;2023-04-07T03:27:41;98751.66;;;2.81;83.29
42289;BME280;30230;47.520;19.016;2023-04-07T03:29:41;98749.50;;;2.85;82.33
42289;BME280;30230;47.520;19.016;2023-04-07T03:31:42;98745.31;;;2.91;81.75
42289;BME280;30230;47.520;19.016;2023-04-07T03:33:42;98750.63;;;2.99;82.22
42289;BME280;30230;47.520;19.016;2023-04-07T03:35:43;98748.13;;;2.89;81.47
42289;BME280;30230;47.520;19.016;2023-04-07T03:37:43;98745.81;;;2.94;82.74
42289;BME280;30230;47.520;19.016;2023-04-07T03:39:43;98745.81;;;2.86;83.18
42289;BME280;30230;47.520;19.016;2023-04-07T03:41:44;98739.97;;;2.82;82.62
42289;BME280;30230;47.520;19.016;2023-04-07T03:43:44;98742.47;;;2.92;83.34
42289;BME280;30230;47.520;19.016;2023-04-07T03:45:45;98752.00;;;2.95;81.11
42289;BME280;30230;47.520;19.016;2023-04-07T03:47:46;98742.50;;;3.00;80.47
42289;BME280;30230;47.520;19.016;2023-04-07T03:49:47;98751.00;;;2.96;81.82
42289;BME280;30230;47.520;19.016;2023-04-07T03:51:47;98745.81;;;2.94;81.79
42289;BME280;30230;47.520;19.016;2023-04-07T03:53:47;98746.81;;;2.93;81.49
42289;BME280;30230;47.520;19.016;2023-04-07T03:55:48;98745.31;;;2.91;81.59
42289;BME280;30230;47.520;19.016;2023-04-07T03:57:48;98751.34;;;2.84;82.34
42289;BME280;30230;47.520;19.016;2023-04-07T03:59:49;98747.81;;;2.92;81.95
42289;BME280;30230;47.520;19.016;2023-04-07T04:01:50;98755.81;;;2.92;81.55
42289;BME280;30230;47.520;19.016;2023-04-07T04:03:51;98753.66;;;2.87;81.95
42289;BME280;30230;47.520;19.016;2023-04-07T04:05:51;98759.16;;;2.86;82.28
42289;BME280;30230;47.520;19.016;2023-04-07T04:07:51;98762.00;;;3.01;81.45
42289;BME280;30230;47.520;19.016;2023-04-07T04:09:52;98756.47;;;2.94;81.53
42289;BME280;30230;47.520;19.016;2023-04-07T04:11:52;98766.81;;;2.97;81.89
42289;BME280;30230;47.520;19.016;2023-04-07T04:13:53;98768.47;;;2.98;82.20
42289;BME280;30230;47.520;19.016;2023-04-07T04:15:53;98771.66;;;2.94;81.75
42289;BME280;30230;47.520;19.016;2023-04-07T04:17:53;98769.97;;;2.93;81.68
42289;BME280;30230;47.520;19.016;2023-04-07T04:19:54;98765.63;;;3.00;80.81
42289;BME280;30230;47.520;19.016;2023-04-07T04:21:54;98756.81;;;2.99;81.18
42289;BME280;30230;47.520;19.016;2023-04-07T04:23:55;98769.63;;;3.04;81.80
42289;BME280;30230;47.520;19.016;2023-04-07T04:25:55;98770.66;;;3.11;81.57
42289;BME280;30230;47.520;19.016;2023-04-07T04:27:56;98771.97;;;2.99;80.84
42289;BME280;30230;47.520;19.016;2023-04-07T04:29:57;98776.47;;;2.98;80.90
42289;BME280;30230;47.520;19.016;2023-04-07T04:31:58;98778.66;;;3.03;80.89
42289;BME280;30230;47.520;19.016;2023-04-07T04:33:58;98780.81;;;3.07;81.70
42289;BME280;30230;47.520;19.016;2023-04-07T04:35:58;98782.16;;;2.95;82.72
42289;BME280;30230;47.520;19.016;2023-04-07T04:37:59;98789.66;;;3.00;82.45
42289;BME280;30230;47.520;19.016;2023-04-07T04:39:59;98784.97;;;2.94;82.88
42289;BME280;30230;47.520;19.016;2023-04-07T04:42:00;98781.34;;;2.95;82.29
42289;BME280;30230;47.520;19.016;2023-04-07T04:44:01;98777.00;;;3.02;82.64
42289;BME280;30230;47.520;19.016;2023-04-07T04:46:01;98777.00;;;3.02;82.53
42289;BME280;30230;47.520;19.016;2023-04-07T04:48:01;98775.34;;;3.01;81.96
42289;BME280;30230;47.520;19.016;2023-04-07T04:50:02;98784.97;;;2.94;82.56
42289;BME280;30230;47.520;19.016;2023-04-07T04:52:03;98781.47;;;2.93;83.50
42289;BME280;30230;47.520;19.016;2023-04-07T04:54:03;98792.50;;;2.98;83.40
42289;BME280;30230;47.520;19.016;2023-04-07T04:56:05;98791.16;;;3.10;82.31
42289;BME280;30230;47.520;19.016;2023-04-07T04:58:06;98796.00;;;3.07;82.53
42289;BME280;30230;47.520;19.016;2023-04-07T05:00:07;98789.16;;;2.96;83.20
42289;BME280;30230;47.520;19.016;2023-04-07T05:02:07;98788.31;;;3.04;83.34
42289;BME280;30230;47.520;19.016;2023-04-07T05:04:08;98770.81;;;3.01;82.81
42289;BME280;30230;47.520;19.016;2023-04-07T05:06:09;98775.81;;;3.04;82.67
42289;BME280;30230;47.520;19.016;2023-04-07T05:08:10;98793.31;;;3.15;82.80
42289;BME280;30230;47.520;19.016;2023-04-07T05:10:10;98796.81;;;2.99;83.39
42289;BME280;30230;47.520;19.016;2023-04-07T05:12:11;98803.19;;;3.06;83.69
42289;BME280;30230;47.520;19.016;2023-04-07T05:14:11;98804.50;;;3.19;83.77
42289;BME280;30230;47.520;19.016;2023-04-07T05:16:11;98809.16;;;3.08;84.01
42289;BME280;30230;47.520;19.016;2023-04-07T05:18:12;98808.66;;;3.13;83.80
42289;BME280;30230;47.520;19.016;2023-04-07T05:20:12;98810.81;;;3.09;82.58
42289;BME280;30230;47.520;19.016;2023-04-07T05:22:13;98806.81;;;3.13;83.06
42289;BME280;30230;47.520;19.016;2023-04-07T05:24:13;98805.00;;;3.06;83.78
42289;BME280;30230;47.520;19.016;2023-04-07T05:26:14;98811.19;;;3.06;83.18
42289;BME280;30230;47.520;19.016;2023-04-07T05:28:14;98811.50;;;3.20;82.97
42289;BME280;30230;47.520;19.016;2023-04-07T05:30:15;98820.50;;;3.19;82.27
42289;BME280;30230;47.520;19.016;2023-04-07T05:32:15;98816.66;;;3.29;83.36
42289;BME280;30230;47.520;19.016;2023-04-07T05:34:16;98813.34;;;3.27;83.29
42289;BME280;30230;47.520;19.016;2023-04-07T05:36:18;98816.66;;;3.37;82.27
42289;BME280;30230;47.520;19.016;2023-04-07T05:38:18;98816.66;;;3.37;82.73
42289;BME280;30230;47.520;19.016;2023-04-07T05:40:19;98811.66;;;3.34;83.09
42289;BME280;30230;47.520;19.016;2023-04-07T05:42:19;98814.66;;;3.48;83.04
42289;BME280;30230;47.520;19.016;2023-04-07T05:44:20;98812.34;;;3.36;82.61
42289;BME280;30230;47.520;19.016;2023-04-07T05:46:20;98827.66;;;3.43;83.09
42289;BME280;30230;47.520;19.016;2023-04-07T05:48:21;98818.31;;;3.47;83.49
42289;BME280;30230;47.520;19.016;2023-04-07T05:50:22;98813.28;;;3.60;81.54
42289;BME280;30230;47.520;19.016;2023-04-07T05:52:23;98805.78;;;3.63;82.09
42289;BME280;30230;47.520;19.016;2023-04-07T05:54:23;98812.13;;;3.62;81.95
42289;BME280;30230;47.520;19.016;2023-04-07T05:56:24;98814.66;;;3.48;82.25
42289;BME280;30230;47.520;19.016;2023-04-07T05:58:24;98828.97;;;3.55;83.29
42289;BME280;30230;47.520;19.016;2023-04-07T06:00:25;98826.31;;;3.55;83.18
42289;BME280;30230;47.520;19.016;2023-04-07T06:02:26;98823.97;;;3.60;81.81
42289;BME280;30230;47.520;19.016;2023-04-07T06:04:26;98809.97;;;3.58;81.86
42289;BME280;30230;47.520;19.016;2023-04-07T06:06:27;98821.28;;;3.60;83.24
42289;BME280;30230;47.520;19.016;2023-04-07T06:08:27;98824.47;;;3.63;82.39
42289;BME280;30230;47.520;19.016;2023-04-07T06:10:28;98822.94;;;3.61;82.44
42289;BME280;30230;47.520;19.016;2023-04-07T06:12:28;98821.63;;;3.65;82.66
42289;BME280;30230;47.520;19.016;2023-04-07T06:14:29;98824.09;;;3.66;82.20
42289;BME280;30230;47.520;19.016;2023-04-07T06:16:29;98815.13;;;3.68;82.37
42289;BME280;30230;47.520;19.016;2023-04-07T06:18:30;98825.91;;;3.82;82.44
42289;BME280;30230;47.520;19.016;2023-04-07T06:20:30;98819.78;;;3.74;81.28
42289;BME280;30230;47.520;19.016;2023-04-07T06:22:31;98823.59;;;3.79;82.11
42289;BME280;30230;47.520;19.016;2023-04-07T06:24:31;98822.25;;;3.75;82.51
42289;BME280;30230;47.520;19.016;2023-04-07T06:26:32;98821.25;;;3.76;81.81
42289;BME280;30230;47.520;19.016;2023-04-07T06:28:32;98818.94;;;3.73;82.51
42289;BME280;30230;47.520;19.016;2023-04-07T06:30:33;98820.59;;;3.74;82.84
42289;BME280;30230;47.520;19.016;2023-04-07T06:32:33;98833.25;;;3.80;83.40
42289;BME280;30230;47.520;19.016;2023-04-07T06:34:34;98820.25;;;3.77;83.21
42289;BME280;30230;47.520;19.016;2023-04-07T06:36:35;98838.94;;;3.85;82.95
42289;BME280;30230;47.520;19.016;2023-04-07T06:38:37;98833.59;;;3.85;82.81
42289;BME280;30230;47.520;19.016;2023-04-07T06:40:38;98844.28;;;3.85;83.07
42289;BME280;30230;47.520;19.016;2023-04-07T06:42:38;98846.63;;;3.80;83.11
42289;BME280;30230;47.520;19.016;2023-04-07T06:44:38;98846.34;;;3.67;83.25
42289;BME280;30230;47.520;19.016;2023-04-07T06:46:39;98839.34;;;3.58;83.68
42289;BME280;30230;47.520;19.016;2023-04-07T06:48:41;98853.81;;;3.72;83.88
42289;BME280;30230;47.520;19.016;2023-04-07T06:50:45;98823.13;;;3.59;83.51
42289;BME280;30230;47.520;19.016;2023-04-07T06:52:45;98849.66;;;3.69;83.58
42289;BME280;30230;47.520;19.016;2023-04-07T06:54:46;98857.34;;;3.72;84.29
42289;BME280;30230;47.520;19.016;2023-04-07T06:56:46;98848.81;;;3.60;86.37
42289;BME280;30230;47.520;19.016;2023-04-07T06:58:46;98859.19;;;3.63;87.76
42289;BME280;30230;47.520;19.016;2023-04-07T07:00:47;98858.03;;;3.58;88.47
42289;BME280;30230;47.520;19.016;2023-04-07T07:02:48;98858.69;;;3.60;88.52
42289;BME280;30230;47.520;19.016;2023-04-07T07:04:49;98858.53;;;3.53;90.69
42289;BME280;30230;47.520;19.016;2023-04-07T07:06:49;98864.03;;;3.44;92.86
42289;BME280;30230;47.520;19.016;2023-04-07T07:08:50;98864.03;;;3.44;92.28
42289;BME280;30230;47.520;19.016;2023-04-07T07:10:50;98869.03;;;3.38;91.96
42289;BME280;30230;47.520;19.016;2023-04-07T07:12:51;98876.72;;;3.50;92.23
42289;BME280;30230;47.520;19.016;2023-04-07T07:14:51;98876.38;;;3.61;91.63
42289;BME280;30230;47.520;19.016;2023-04-07T07:16:52;98881.03;;;3.51;92.34
42289;BME280;30230;47.520;19.016;2023-04-07T07:18:52;98883.75;;;3.43;93.41
42289;BME280;30230;47.520;19.016;2023-04-07T07:20:53;98882.72;;;3.44;94.45
42289;BME280;30230;47.520;19.016;2023-04-07T07:22:53;98887.25;;;3.43;95.75
42289;BME280;30230;47.520;19.016;2023-04-07T07:24:53;98888.75;;;3.62;95.65
42289;BME280;30230;47.520;19.016;2023-04-07T07:26:54;98898.56;;;3.70;95.17
42289;BME280;30230;47.520;19.016;2023-04-07T07:28:56;98888.72;;;3.54;94.98
42289;BME280;30230;47.520;19.016;2023-04-07T07:30:56;98891.41;;;3.54;95.32
42289;BME280;30230;47.520;19.016;2023-04-07T07:32:57;98863.19;;;3.35;94.65
42289;BME280;30230;47.520;19.016;2023-04-07T07:34:57;98895.41;;;3.58;95.39
42289;BME280;30230;47.520;19.016;2023-04-07T07:36:58;98883.53;;;3.69;94.19
42289;BME280;30230;47.520;19.016;2023-04-07T07:38:59;98899.53;;;3.77;92.39
42289;BME280;30230;47.520;19.016;2023-04-07T07:40:59;98898.56;;;3.70;93.51
42289;BME280;30230;47.520;19.016;2023-04-07T07:43:00;98897.72;;;3.69;94.83
42289;BME280;30230;47.520;19.016;2023-04-07T07:45:00;98895.91;;;3.70;93.80
42289;BME280;30230;47.520;19.016;2023-04-07T07:47:01;98903.06;;;3.69;93.76
42289;BME280;30230;47.520;19.016;2023-04-07T07:49:01;98896.03;;;3.76;94.49
42289;BME280;30230;47.520;19.016;2023-04-07T07:51:02;98903.06;;;3.85;94.48
42289;BME280;30230;47.520;19.016;2023-04-07T07:53:02;98907.22;;;3.88;94.29
42289;BME280;30230;47.520;19.016;2023-04-07T07:55:03;98904.38;;;3.89;94.05
42289;BME280;30230;47.520;19.016;2023-04-07T07:57:05;98910.00;;;4.03;95.01
42289;BME280;30230;47.520;19.016;2023-04-07T07:59:05;98914.28;;;4.28;93.44
42289;BME280;30230;47.520;19.016;2023-04-07T08:01:05;98907.78;;;4.23;93.32
42289;BME280;30230;47.520;19.016;2023-04-07T08:03:06;98924.66;;;4.31;94.79
42289;BME280;30230;47.520;19.016;2023-04-07T08:05:07;98924.16;;;4.28;95.15
42289;BME280;30230;47.520;19.016;2023-04-07T08:07:07;98920.47;;;4.29;95.23
42289;BME280;30230;47.520;19.016;2023-04-07T08:09:08;98926.03;;;4.19;94.75
42289;BME280;30230;47.520;19.016;2023-04-07T08:11:08;98931.72;;;4.16;95.87
42289;BME280;30230;47.520;19.016;2023-04-07T08:13:09;98929.22;;;4.14;96.71
42289;BME280;30230;47.520;19.016;2023-04-07T08:15:10;98935.88;;;4.18;95.13
42289;BME280;30230;47.520;19.016;2023-04-07T08:17:10;98921.91;;;4.08;94.73
42289;BME280;30230;47.520;19.016;2023-04-07T08:19:12;98929.06;;;4.08;95.97
42289;BME280;30230;47.520;19.016;2023-04-07T08:21:12;98931.25;;;4.04;96.20
42289;BME280;30230;47.520;19.016;2023-04-07T08:23:13;98935.59;;;3.97;97.60
42289;BME280;30230;47.520;19.016;2023-04-07T08:25:13;98932.09;;;4.05;97.26
42289;BME280;30230;47.520;19.016;2023-04-07T08:27:14;98929.25;;;3.98;97.91
42289;BME280;30230;47.520;19.016;2023-04-07T08:29:14;98933.09;;;3.96;97.44
42289;BME280;30230;47.520;19.016;2023-04-07T08:31:15;98941.56;;;4.07;97.66
42289;BME280;30230;47.520;19.016;2023-04-07T08:33:15;98942.91;;;4.11;98.16
42289;BME280;30230;47.520;19.016;2023-04-07T08:35:16;98936.38;;;4.22;97.91
42289;BME280;30230;47.520;19.016;2023-04-07T08:37:16;98942.22;;;4.17;97.13
42289;BME280;30230;47.520;19.016;2023-04-07T08:39:16;98942.88;;;4.28;97.20
42289;BME280;30230;47.520;19.016;2023-04-07T08:41:20;98932.53;;;4.25;98.58
42289;BME280;30230;47.520;19.016;2023-04-07T08:43:24;98937.84;;;4.33;98.60
42289;BME280;30230;47.520;19.016;2023-04-07T08:45:26;98941.66;;;4.38;97.42
42289;BME280;30230;47.520;19.016;2023-04-07T08:47:30;98941.84;;;4.45;98.85
42289;BME280;30230;47.520;19.016;2023-04-07T08:49:33;98949.88;;;4.37;95.60
42289;BME280;30230;47.520;19.016;2023-04-07T08:51:37;98935.34;;;4.39;94.02
42289;BME280;30230;47.520;19.016;2023-04-07T08:53:42;98940.69;;;4.31;92.31
42289;BME280;30230;47.520;19.016;2023-04-07T08:55:49;98947.50;;;4.42;94.48
42289;BME280;30230;47.520;19.016;2023-04-07T08:57:50;98941.97;;;4.52;96.29
42289;BME280;30230;47.520;19.016;2023-04-07T08:59:52;98932.34;;;4.74;94.32
42289;BME280;30230;47.520;19.016;2023-04-07T09:01:53;98934.47;;;4.86;93.78
42289;BME280;30230;47.520;19.016;2023-04-07T09:03:55;98935.09;;;4.96;93.99
42289;BME280;30230;47.520;19.016;2023-04-07T09:05:57;98939.13;;;4.92;90.57
42289;BME280;30230;47.520;19.016;2023-04-07T09:07:59;98935.44;;;4.85;91.97
42289;BME280;30230;47.520;19.016;2023-04-07T09:09:59;98925.50;;;4.71;89.48
42289;BME280;30230;47.520;19.016;2023-04-07T09:12:00;98936.22;;;4.71;91.21
42289;BME280;30230;47.520;19.016;2023-04-07T09:14:01;98929.47;;;4.75;92.07
42289;BME280;30230;47.520;19.016;2023-04-07T09:16:02;98943.31;;;4.87;91.88
42289;BME280;30230;47.520;19.016;2023-04-07T09:18:02;98938.13;;;4.85;91.69
42289;BME280;30230;47.520;19.016;2023-04-07T09:20:03;98932.16;;;4.75;91.02
42289;BME280;30230;47.520;19.016;2023-04-07T09:22:03;98940.06;;;4.68;91.50
42289;BME280;30230;47.520;19.016;2023-04-07T09:24:22;98922.66;;;4.73;91.38
42289;BME280;30230;47.520;19.016;2023-04-07T09:26:25;98936.16;;;4.79;89.54
42289;BME280;30230;47.520;19.016;2023-04-07T09:28:41;98936.84;;;4.81;87.74
42289;BME280;30230;47.520;19.016;2023-04-07T09:30:51;98936.00;;;4.81;89.89
42289;BME280;30230;47.520;19.016;2023-04-07T09:32:52;98940.66;;;4.87;89.62
42289;BME280;30230;47.520;19.016;2023-04-07T09:34:58;98939.31;;;4.83;90.87
42289;BME280;30230;47.520;19.016;2023-04-07T09:36:59;98945.19;;;4.86;90.92
42289;BME280;30230;47.520;19.016;2023-04-07T09:39:07;98939.44;;;4.89;89.38
42289;BME280;30230;47.520;19.016;2023-04-07T09:41:09;98929.06;;;4.94;90.31
42289;BME280;30230;47.520;19.016;2023-04-07T09:43:16;98940.69;;;5.10;90.65
42289;BME280;30230;47.520;19.016;2023-04-07T09:45:23;98942.94;;;5.21;90.36
42289;BME280;30230;47.520;19.016;2023-04-07T09:47:26;98941.66;;;5.17;89.83
42289;BME280;30230;47.520;19.016;2023-04-07T09:49:28;98934.78;;;5.37;90.13
42289;BME280;30230;47.520;19.016;2023-04-07T09:51:28;98947.34;;;5.37;89.00
42289;BME280;30230;47.520;19.016;2023-04-07T09:53:48;98940.75;;;5.47;89.38
42289;BME280;30230;47.520;19.016;2023-04-07T09:55:48;98931.78;;;5.40;89.45
42289;BME280;30230;47.520;19.016;2023-04-07T09:57:50;98934.56;;;5.47;90.54
42289;BME280;30230;47.520;19.016;2023-04-07T09:59:50;98938.75;;;5.49;89.96
42289;BME280;30230;47.520;19.016;2023-04-07T10:01:52;98942.59;;;5.47;90.30
42289;BME280;30230;47.520;19.016;2023-04-07T10:03:53;98944.34;;;5.40;88.48
42289;BME280;30230;47.520;19.016;2023-04-07T10:05:55;98940.44;;;5.42;89.25
42289;BME280;30230;47.520;19.016;2023-04-07T10:07:56;98952.59;;;5.30;86.70
42289;BME280;30230;47.520;19.016;2023-04-07T10:09:56;98940.03;;;5.31;85.47
42289;BME280;30230;47.520;19.016;2023-04-07T10:11:58;98945.22;;;5.32;86.16
42289;BME280;30230;47.520;19.016;2023-04-07T10:13:59;98950.22;;;5.35;86.90
42289;BME280;30230;47.520;19.016;2023-04-07T10:16:02;98947.25;;;5.30;86.44
42289;BME280;30230;47.520;19.016;2023-04-07T10:18:04;98950.41;;;5.34;86.68
42289;BME280;30230;47.520;19.016;2023-04-07T10:20:06;98955.09;;;5.32;83.68
42289;BME280;30230;47.520;19.016;2023-04-07T10:22:09;98948.59;;;5.26;86.10
42289;BME280;30230;47.520;19.016;2023-04-07T10:26:42;98952.72;;;5.37;85.21
42289;BME280;30230;47.520;19.016;2023-04-07T10:28:45;98948.16;;;5.45;85.89
42289;BME280;30230;47.520;19.016;2023-04-07T10:30:47;98947.31;;;5.45;87.72
42289;BME280;30230;47.520;19.016;2023-04-07T10:32:50;98949.75;;;5.55;85.46
42289;BME280;30230;47.520;19.016;2023-04-07T10:37:10;98953.19;;;5.40;83.95
42289;BME280;30230;47.520;19.016;2023-04-07T10:41:32;98960.38;;;5.48;83.28
42289;BME280;30230;47.520;19.016;2023-04-07T10:43:38;98941.78;;;5.46;83.70
42289;BME280;30230;47.520;19.016;2023-04-07T10:50:16;98954.03;;;5.64;82.25
42289;BME280;30230;47.520;19.016;2023-04-07T10:52:21;98956.41;;;5.82;79.66
42289;BME280;30230;47.520;19.016;2023-04-07T10:54:22;98956.44;;;5.73;80.56
42289;BME280;30230;47.520;19.016;2023-04-07T10:56:25;98960.16;;;5.72;80.66
42289;BME280;30230;47.520;19.016;2023-04-07T10:58:30;98959.31;;;5.72;81.05
42289;BME280;30230;47.520;19.016;2023-04-07T11:00:31;98948.69;;;5.64;82.68